LGRX/GPA METAR and TAF weather

Enter ICAO airport designator
Station Type Date Time Source
LGRX METAR 2021/05/14 12:50 UTC NOAA

LGRX 141250Z 26005KT 9999 FEW025 24/13 Q1016


Station Type Date Time Source
LGRX Decoded METAR 2021/05/14 12:50 UTC NOAA

Araxos Airport , Greece (LGRX) 38-09N 021-25E 12M
May 14, 2021 - 08:50 AM EDT / 2021.05.14 1250 UTC
Wind: from the W (260 degrees) at 6 MPH (5 KT):0
Visibility: greater than 7 mile(s):0
Sky conditions: mostly clear
Temperature: 75 F (24 C)
Dew Point: 55 F (13 C)
Relative Humidity: 50%
Pressure (altimeter): 30.00 in. Hg (1016 hPa)
ob: LGRX 141250Z 26005KT 9999 FEW025 24/13 Q1016
cycle: 13

Station Type Date Time Source
LGRX TAF 2020/03/18 09:39 UTC NOAA

TAF LGRX 180800Z 1809/1821 33006KT 9999 FEW030
BECMG 1816/1818 07010KT

Example: see airport list